sensor_id;sensor_type;location;lat;lon;timestamp;P1;durP1;ratioP1;P2;durP2;ratioP2
72791;SDS011;60907;53.268;8.764;2023-11-18T00:00:48;3.00;;;1.80;;
72791;SDS011;60907;53.268;8.764;2023-11-18T00:03:14;3.45;;;2.13;;
72791;SDS011;60907;53.268;8.764;2023-11-18T00:05:39;3.33;;;1.60;;
72791;SDS011;60907;53.268;8.764;2023-11-18T00:08:05;5.38;;;1.75;;
72791;SDS011;60907;53.268;8.764;2023-11-18T00:10:31;3.75;;;1.80;;
72791;SDS011;60907;53.268;8.764;2023-11-18T00:12:56;2.10;;;1.30;;
72791;SDS011;60907;53.268;8.764;2023-11-18T00:15:22;4.43;;;1.70;;
72791;SDS011;60907;53.268;8.764;2023-11-18T00:17:47;3.80;;;1.73;;
72791;SDS011;60907;53.268;8.764;2023-11-18T00:20:12;3.17;;;1.77;;
72791;SDS011;60907;53.268;8.764;2023-11-18T00:22:39;3.63;;;1.60;;
72791;SDS011;60907;53.268;8.764;2023-11-18T00:25:05;2.63;;;1.40;;
72791;SDS011;60907;53.268;8.764;2023-11-18T00:27:32;3.90;;;1.73;;
72791;SDS011;60907;53.268;8.764;2023-11-18T00:30:00;4.30;;;1.80;;
72791;SDS011;60907;53.268;8.764;2023-11-18T00:32:26;3.55;;;1.92;;
72791;SDS011;60907;53.268;8.764;2023-11-18T00:34:52;3.88;;;1.13;;
72791;SDS011;60907;53.268;8.764;2023-11-18T00:37:17;3.50;;;1.60;;
72791;SDS011;60907;53.268;8.764;2023-11-18T00:39:42;2.33;;;1.30;;
72791;SDS011;60907;53.268;8.764;2023-11-18T00:42:08;3.77;;;1.90;;
72791;SDS011;60907;53.268;8.764;2023-11-18T00:44:33;3.43;;;1.80;;
72791;SDS011;60907;53.268;8.764;2023-11-18T00:46:59;4.57;;;1.98;;
72791;SDS011;60907;53.268;8.764;2023-11-18T00:49:25;3.70;;;1.70;;
72791;SDS011;60907;53.268;8.764;2023-11-18T00:51:51;3.92;;;2.30;;
72791;SDS011;60907;53.268;8.764;2023-11-18T00:54:16;4.10;;;1.77;;
72791;SDS011;60907;53.268;8.764;2023-11-18T00:56:42;4.55;;;1.92;;
72791;SDS011;60907;53.268;8.764;2023-11-18T00:59:07;4.18;;;1.95;;
72791;SDS011;60907;53.268;8.764;2023-11-18T01:01:33;3.60;;;2.05;;
72791;SDS011;60907;53.268;8.764;2023-11-18T01:03:58;4.78;;;2.20;;
72791;SDS011;60907;53.268;8.764;2023-11-18T01:06:25;5.90;;;2.50;;
72791;SDS011;60907;53.268;8.764;2023-11-18T01:08:51;4.80;;;2.70;;
72791;SDS011;60907;53.268;8.764;2023-11-18T01:11:16;7.28;;;3.30;;
72791;SDS011;60907;53.268;8.764;2023-11-18T01:13:47;7.15;;;3.38;;
72791;SDS011;60907;53.268;8.764;2023-11-18T01:16:13;7.13;;;3.42;;
72791;SDS011;60907;53.268;8.764;2023-11-18T01:18:39;6.32;;;2.83;;
72791;SDS011;60907;53.268;8.764;2023-11-18T01:21:05;6.80;;;2.42;;
72791;SDS011;60907;53.268;8.764;2023-11-18T01:23:33;6.30;;;3.13;;
72791;SDS011;60907;53.268;8.764;2023-11-18T01:25:59;8.05;;;3.58;;
72791;SDS011;60907;53.268;8.764;2023-11-18T01:28:25;7.03;;;3.47;;
72791;SDS011;60907;53.268;8.764;2023-11-18T01:30:51;6.20;;;3.60;;
72791;SDS011;60907;53.268;8.764;2023-11-18T01:33:17;7.88;;;3.20;;
72791;SDS011;60907;53.268;8.764;2023-11-18T01:35:43;6.28;;;2.92;;
72791;SDS011;60907;53.268;8.764;2023-11-18T01:38:09;6.53;;;3.00;;
72791;SDS011;60907;53.268;8.764;2023-11-18T01:40:34;7.70;;;3.93;;
72791;SDS011;60907;53.268;8.764;2023-11-18T01:42:59;5.78;;;3.08;;
72791;SDS011;60907;53.268;8.764;2023-11-18T01:45:25;7.68;;;3.25;;
72791;SDS011;60907;53.268;8.764;2023-11-18T01:47:52;6.35;;;3.28;;
72791;SDS011;60907;53.268;8.764;2023-11-18T01:50:17;7.43;;;3.42;;
72791;SDS011;60907;53.268;8.764;2023-11-18T01:52:43;5.53;;;2.90;;
72791;SDS011;60907;53.268;8.764;2023-11-18T01:55:10;5.28;;;2.75;;
72791;SDS011;60907;53.268;8.764;2023-11-18T01:57:35;4.68;;;2.92;;
72791;SDS011;60907;53.268;8.764;2023-11-18T02:00:02;7.45;;;3.90;;
72791;SDS011;60907;53.268;8.764;2023-11-18T02:02:31;7.65;;;3.53;;
72791;SDS011;60907;53.268;8.764;2023-11-18T02:04:58;6.70;;;3.72;;
72791;SDS011;60907;53.268;8.764;2023-11-18T02:07:23;6.28;;;3.40;;
72791;SDS011;60907;53.268;8.764;2023-11-18T02:09:49;7.55;;;3.65;;
72791;SDS011;60907;53.268;8.764;2023-11-18T02:14:41;6.87;;;3.43;;
72791;SDS011;60907;53.268;8.764;2023-11-18T02:17:09;7.78;;;4.05;;
72791;SDS011;60907;53.268;8.764;2023-11-18T02:19:35;9.60;;;4.25;;
72791;SDS011;60907;53.268;8.764;2023-11-18T02:22:01;8.13;;;4.03;;
72791;SDS011;60907;53.268;8.764;2023-11-18T02:24:27;9.68;;;4.30;;
72791;SDS011;60907;53.268;8.764;2023-11-18T02:26:58;6.65;;;3.25;;
72791;SDS011;60907;53.268;8.764;2023-11-18T02:29:25;8.27;;;4.30;;
72791;SDS011;60907;53.268;8.764;2023-11-18T02:31:52;7.55;;;4.05;;
72791;SDS011;60907;53.268;8.764;2023-11-18T02:34:19;8.02;;;3.95;;
72791;SDS011;60907;53.268;8.764;2023-11-18T02:36:48;9.85;;;4.03;;
72791;SDS011;60907;53.268;8.764;2023-11-18T02:39:21;8.63;;;3.78;;
72791;SDS011;60907;53.268;8.764;2023-11-18T02:41:51;7.20;;;3.13;;
72791;SDS011;60907;53.268;8.764;2023-11-18T02:44:17;9.55;;;3.55;;
72791;SDS011;60907;53.268;8.764;2023-11-18T02:46:45;7.22;;;3.72;;
72791;SDS011;60907;53.268;8.764;2023-11-18T02:49:10;8.30;;;3.67;;
72791;SDS011;60907;53.268;8.764;2023-11-18T02:51:37;8.43;;;4.18;;
72791;SDS011;60907;53.268;8.764;2023-11-18T02:54:07;9.52;;;4.10;;
72791;SDS011;60907;53.268;8.764;2023-11-18T02:56:35;8.55;;;3.83;;
72791;SDS011;60907;53.268;8.764;2023-11-18T02:59:04;8.80;;;3.80;;
72791;SDS011;60907;53.268;8.764;2023-11-18T03:01:32;10.35;;;4.55;;
72791;SDS011;60907;53.268;8.764;2023-11-18T03:04:01;8.52;;;3.67;;
72791;SDS011;60907;53.268;8.764;2023-11-18T03:06:27;9.18;;;4.22;;
72791;SDS011;60907;53.268;8.764;2023-11-18T03:08:52;7.32;;;4.13;;
72791;SDS011;60907;53.268;8.764;2023-11-18T03:11:19;7.25;;;3.72;;
72791;SDS011;60907;53.268;8.764;2023-11-18T03:13:45;10.63;;;3.83;;
72791;SDS011;60907;53.268;8.764;2023-11-18T03:16:11;7.78;;;4.22;;
72791;SDS011;60907;53.268;8.764;2023-11-18T03:18:40;7.18;;;3.55;;
72791;SDS011;60907;53.268;8.764;2023-11-18T03:21:12;8.10;;;4.05;;
72791;SDS011;60907;53.268;8.764;2023-11-18T03:23:38;8.95;;;4.57;;
72791;SDS011;60907;53.268;8.764;2023-11-18T03:26:05;7.97;;;4.63;;
72791;SDS011;60907;53.268;8.764;2023-11-18T03:28:31;7.80;;;4.20;;
72791;SDS011;60907;53.268;8.764;2023-11-18T03:30:57;9.07;;;4.60;;
72791;SDS011;60907;53.268;8.764;2023-11-18T03:33:22;10.93;;;6.20;;
72791;SDS011;60907;53.268;8.764;2023-11-18T03:35:48;9.13;;;4.60;;
72791;SDS011;60907;53.268;8.764;2023-11-18T03:38:14;10.10;;;5.57;;
72791;SDS011;60907;53.268;8.764;2023-11-18T03:40:40;9.82;;;4.90;;
72791;SDS011;60907;53.268;8.764;2023-11-18T03:43:06;8.80;;;5.25;;
72791;SDS011;60907;53.268;8.764;2023-11-18T03:45:32;10.75;;;5.38;;
72791;SDS011;60907;53.268;8.764;2023-11-18T03:47:58;9.50;;;5.38;;
72791;SDS011;60907;53.268;8.764;2023-11-18T03:50:24;11.27;;;5.53;;
72791;SDS011;60907;53.268;8.764;2023-11-18T03:52:49;8.80;;;4.82;;
72791;SDS011;60907;53.268;8.764;2023-11-18T03:55:15;10.70;;;5.33;;
72791;SDS011;60907;53.268;8.764;2023-11-18T03:57:40;9.48;;;5.32;;
72791;SDS011;60907;53.268;8.764;2023-11-18T04:00:06;11.88;;;5.85;;
72791;SDS011;60907;53.268;8.764;2023-11-18T04:02:32;10.15;;;5.30;;
72791;SDS011;60907;53.268;8.764;2023-11-18T04:05:00;13.40;;;5.15;;
72791;SDS011;60907;53.268;8.764;2023-11-18T04:07:26;11.85;;;5.72;;
72791;SDS011;60907;53.268;8.764;2023-11-18T04:09:53;11.68;;;5.50;;
72791;SDS011;60907;53.268;8.764;2023-11-18T04:12:19;11.80;;;6.28;;
72791;SDS011;60907;53.268;8.764;2023-11-18T04:14:44;11.40;;;5.75;;
72791;SDS011;60907;53.268;8.764;2023-11-18T04:17:09;9.32;;;5.50;;
72791;SDS011;60907;53.268;8.764;2023-11-18T04:19:35;11.60;;;4.95;;
72791;SDS011;60907;53.268;8.764;2023-11-18T04:22:00;11.15;;;5.85;;
72791;SDS011;60907;53.268;8.764;2023-11-18T04:24:26;10.88;;;5.63;;
72791;SDS011;60907;53.268;8.764;2023-11-18T04:26:51;11.20;;;6.07;;
72791;SDS011;60907;53.268;8.764;2023-11-18T04:29:17;9.73;;;5.60;;
72791;SDS011;60907;53.268;8.764;2023-11-18T04:31:43;11.30;;;5.95;;
72791;SDS011;60907;53.268;8.764;2023-11-18T04:34:08;11.35;;;6.05;;
72791;SDS011;60907;53.268;8.764;2023-11-18T04:36:34;11.40;;;5.28;;
72791;SDS011;60907;53.268;8.764;2023-11-18T04:39:00;12.45;;;5.90;;
72791;SDS011;60907;53.268;8.764;2023-11-18T04:41:25;11.10;;;6.13;;
72791;SDS011;60907;53.268;8.764;2023-11-18T04:43:51;11.10;;;5.95;;
72791;SDS011;60907;53.268;8.764;2023-11-18T04:46:16;10.95;;;5.65;;
72791;SDS011;60907;53.268;8.764;2023-11-18T04:48:42;11.43;;;5.95;;
72791;SDS011;60907;53.268;8.764;2023-11-18T04:51:08;10.75;;;6.15;;
72791;SDS011;60907;53.268;8.764;2023-11-18T04:53:33;9.73;;;5.30;;
72791;SDS011;60907;53.268;8.764;2023-11-18T04:55:59;10.45;;;5.65;;
72791;SDS011;60907;53.268;8.764;2023-11-18T04:58:24;10.90;;;5.82;;
72791;SDS011;60907;53.268;8.764;2023-11-18T05:00:50;9.38;;;5.55;;
72791;SDS011;60907;53.268;8.764;2023-11-18T05:03:16;10.25;;;5.65;;
72791;SDS011;60907;53.268;8.764;2023-11-18T05:05:41;10.05;;;5.60;;
72791;SDS011;60907;53.268;8.764;2023-11-18T05:08:07;13.77;;;6.28;;
72791;SDS011;60907;53.268;8.764;2023-11-18T05:10:33;13.25;;;6.80;;
72791;SDS011;60907;53.268;8.764;2023-11-18T05:12:59;14.00;;;6.30;;
72791;SDS011;60907;53.268;8.764;2023-11-18T05:15:25;10.43;;;5.63;;
72791;SDS011;60907;53.268;8.764;2023-11-18T05:17:51;13.15;;;6.65;;
72791;SDS011;60907;53.268;8.764;2023-11-18T05:20:18;13.18;;;6.70;;
72791;SDS011;60907;53.268;8.764;2023-11-18T05:22:43;11.80;;;6.20;;
72791;SDS011;60907;53.268;8.764;2023-11-18T05:25:09;14.05;;;7.10;;
72791;SDS011;60907;53.268;8.764;2023-11-18T05:27:38;13.63;;;7.10;;
72791;SDS011;60907;53.268;8.764;2023-11-18T05:30:10;12.40;;;6.50;;
72791;SDS011;60907;53.268;8.764;2023-11-18T05:32:36;11.60;;;6.57;;
72791;SDS011;60907;53.268;8.764;2023-11-18T05:35:02;13.95;;;6.70;;
72791;SDS011;60907;53.268;8.764;2023-11-18T05:37:30;15.05;;;7.15;;
72791;SDS011;60907;53.268;8.764;2023-11-18T05:40:00;12.98;;;6.30;;
72791;SDS011;60907;53.268;8.764;2023-11-18T05:42:31;13.27;;;7.18;;
72791;SDS011;60907;53.268;8.764;2023-11-18T05:44:56;15.38;;;7.85;;
72791;SDS011;60907;53.268;8.764;2023-11-18T05:47:25;17.02;;;8.30;;
72791;SDS011;60907;53.268;8.764;2023-11-18T05:49:51;19.30;;;9.70;;
72791;SDS011;60907;53.268;8.764;2023-11-18T05:52:17;18.13;;;9.55;;
72791;SDS011;60907;53.268;8.764;2023-11-18T05:54:42;19.90;;;8.50;;
72791;SDS011;60907;53.268;8.764;2023-11-18T05:57:08;21.20;;;11.70;;
72791;SDS011;60907;53.268;8.764;2023-11-18T05:59:33;24.27;;;10.75;;
72791;SDS011;60907;53.268;8.764;2023-11-18T06:01:59;19.17;;;8.68;;
72791;SDS011;60907;53.268;8.764;2023-11-18T06:04:24;19.25;;;9.18;;
72791;SDS011;60907;53.268;8.764;2023-11-18T06:06:50;16.60;;;7.18;;
72791;SDS011;60907;53.268;8.764;2023-11-18T06:09:16;14.27;;;8.00;;
72791;SDS011;60907;53.268;8.764;2023-11-18T06:11:46;17.35;;;8.45;;
72791;SDS011;60907;53.268;8.764;2023-11-18T06:14:12;13.75;;;7.43;;
72791;SDS011;60907;53.268;8.764;2023-11-18T06:16:37;18.52;;;8.27;;
72791;SDS011;60907;53.268;8.764;2023-11-18T06:19:05;18.80;;;8.45;;
72791;SDS011;60907;53.268;8.764;2023-11-18T06:21:31;16.65;;;8.90;;
72791;SDS011;60907;53.268;8.764;2023-11-18T06:23:57;17.50;;;8.93;;
72791;SDS011;60907;53.268;8.764;2023-11-18T06:26:23;20.73;;;10.15;;
72791;SDS011;60907;53.268;8.764;2023-11-18T06:28:52;20.42;;;9.55;;
72791;SDS011;60907;53.268;8.764;2023-11-18T06:31:18;19.40;;;9.10;;
72791;SDS011;60907;53.268;8.764;2023-11-18T06:33:45;18.77;;;9.43;;
72791;SDS011;60907;53.268;8.764;2023-11-18T06:38:47;18.73;;;8.63;;
72791;SDS011;60907;53.268;8.764;2023-11-18T06:41:18;20.52;;;9.65;;
72791;SDS011;60907;53.268;8.764;2023-11-18T06:43:44;18.85;;;9.32;;
72791;SDS011;60907;53.268;8.764;2023-11-18T06:48:48;17.42;;;9.05;;
72791;SDS011;60907;53.268;8.764;2023-11-18T06:51:14;24.75;;;11.38;;
72791;SDS011;60907;53.268;8.764;2023-11-18T06:53:43;27.45;;;11.95;;
72791;SDS011;60907;53.268;8.764;2023-11-18T06:56:09;33.30;;;13.15;;
72791;SDS011;60907;53.268;8.764;2023-11-18T06:58:36;44.20;;;17.60;;
72791;SDS011;60907;53.268;8.764;2023-11-18T07:01:03;47.95;;;17.77;;
72791;SDS011;60907;53.268;8.764;2023-11-18T07:03:30;46.03;;;18.13;;
72791;SDS011;60907;53.268;8.764;2023-11-18T07:05:56;50.55;;;20.27;;
72791;SDS011;60907;53.268;8.764;2023-11-18T07:08:22;49.00;;;20.08;;
72791;SDS011;60907;53.268;8.764;2023-11-18T07:10:48;37.25;;;14.38;;
72791;SDS011;60907;53.268;8.764;2023-11-18T07:13:13;39.22;;;15.23;;
72791;SDS011;60907;53.268;8.764;2023-11-18T07:15:39;31.50;;;13.73;;
72791;SDS011;60907;53.268;8.764;2023-11-18T07:18:04;39.83;;;15.05;;
72791;SDS011;60907;53.268;8.764;2023-11-18T07:20:31;39.42;;;15.73;;
72791;SDS011;60907;53.268;8.764;2023-11-18T07:22:57;39.97;;;16.17;;
72791;SDS011;60907;53.268;8.764;2023-11-18T07:25:23;34.70;;;15.15;;
72791;SDS011;60907;53.268;8.764;2023-11-18T07:27:48;39.13;;;16.92;;
72791;SDS011;60907;53.268;8.764;2023-11-18T07:30:14;36.20;;;14.90;;
72791;SDS011;60907;53.268;8.764;2023-11-18T07:32:39;33.05;;;15.40;;
72791;SDS011;60907;53.268;8.764;2023-11-18T07:35:05;45.53;;;15.40;;
72791;SDS011;60907;53.268;8.764;2023-11-18T07:37:34;42.47;;;16.92;;
72791;SDS011;60907;53.268;8.764;2023-11-18T07:40:00;46.80;;;17.23;;
72791;SDS011;60907;53.268;8.764;2023-11-18T07:42:26;49.40;;;17.13;;
72791;SDS011;60907;53.268;8.764;2023-11-18T07:44:51;45.70;;;17.60;;
72791;SDS011;60907;53.268;8.764;2023-11-18T07:47:17;43.22;;;15.95;;
72791;SDS011;60907;53.268;8.764;2023-11-18T07:49:44;51.05;;;18.23;;
72791;SDS011;60907;53.268;8.764;2023-11-18T07:52:10;43.80;;;16.38;;
72791;SDS011;60907;53.268;8.764;2023-11-18T07:54:36;42.13;;;16.70;;
72791;SDS011;60907;53.268;8.764;2023-11-18T07:57:03;49.92;;;19.23;;
72791;SDS011;60907;53.268;8.764;2023-11-18T07:59:29;59.58;;;19.85;;
72791;SDS011;60907;53.268;8.764;2023-11-18T08:01:55;57.08;;;20.05;;
72791;SDS011;60907;53.268;8.764;2023-11-18T08:04:21;65.40;;;21.90;;
72791;SDS011;60907;53.268;8.764;2023-11-18T08:06:47;72.50;;;24.08;;
72791;SDS011;60907;53.268;8.764;2023-11-18T08:09:13;66.95;;;22.35;;
72791;SDS011;60907;53.268;8.764;2023-11-18T08:11:39;66.78;;;21.98;;
72791;SDS011;60907;53.268;8.764;2023-11-18T08:14:06;63.75;;;21.30;;
72791;SDS011;60907;53.268;8.764;2023-11-18T08:16:35;80.65;;;23.60;;
72791;SDS011;60907;53.268;8.764;2023-11-18T08:19:01;89.15;;;26.33;;
72791;SDS011;60907;53.268;8.764;2023-11-18T08:21:33;81.57;;;24.52;;
72791;SDS011;60907;53.268;8.764;2023-11-18T08:23:59;77.50;;;24.63;;
72791;SDS011;60907;53.268;8.764;2023-11-18T08:26:25;88.35;;;28.20;;
72791;SDS011;60907;53.268;8.764;2023-11-18T08:28:51;50.83;;;18.95;;
72791;SDS011;60907;53.268;8.764;2023-11-18T08:31:16;82.38;;;24.77;;
72791;SDS011;60907;53.268;8.764;2023-11-18T08:33:42;86.18;;;25.58;;
72791;SDS011;60907;53.268;8.764;2023-11-18T08:36:08;74.30;;;26.95;;
72791;SDS011;60907;53.268;8.764;2023-11-18T08:38:34;83.47;;;26.75;;
72791;SDS011;60907;53.268;8.764;2023-11-18T08:41:00;82.75;;;26.42;;
72791;SDS011;60907;53.268;8.764;2023-11-18T08:43:26;89.13;;;28.77;;
72791;SDS011;60907;53.268;8.764;2023-11-18T08:45:53;91.45;;;27.00;;
72791;SDS011;60907;53.268;8.764;2023-11-18T08:48:19;79.40;;;27.88;;
72791;SDS011;60907;53.268;8.764;2023-11-18T08:50:48;91.72;;;29.10;;
72791;SDS011;60907;53.268;8.764;2023-11-18T08:53:14;88.43;;;29.02;;
72791;SDS011;60907;53.268;8.764;2023-11-18T08:55:43;81.47;;;26.60;;
72791;SDS011;60907;53.268;8.764;2023-11-18T08:58:21;91.55;;;27.70;;
72791;SDS011;60907;53.268;8.764;2023-11-18T09:00:48;92.63;;;30.58;;
72791;SDS011;60907;53.268;8.764;2023-11-18T09:03:29;93.65;;;27.98;;
72791;SDS011;60907;53.268;8.764;2023-11-18T09:06:00;63.35;;;19.90;;
72791;SDS011;60907;53.268;8.764;2023-11-18T09:08:32;99.47;;;28.90;;
72791;SDS011;60907;53.268;8.764;2023-11-18T09:11:06;95.22;;;29.65;;
72791;SDS011;60907;53.268;8.764;2023-11-18T09:13:40;88.55;;;26.98;;
72791;SDS011;60907;53.268;8.764;2023-11-18T09:16:10;86.32;;;25.52;;
72791;SDS011;60907;53.268;8.764;2023-11-18T09:18:40;92.57;;;27.33;;
72791;SDS011;60907;53.268;8.764;2023-11-18T09:21:08;104.25;;;30.15;;
72791;SDS011;60907;53.268;8.764;2023-11-18T09:23:39;98.70;;;30.10;;
72791;SDS011;60907;53.268;8.764;2023-11-18T09:26:06;89.00;;;27.10;;
72791;SDS011;60907;53.268;8.764;2023-11-18T09:28:32;96.15;;;28.00;;
72791;SDS011;60907;53.268;8.764;2023-11-18T09:31:00;75.97;;;20.98;;
72791;SDS011;60907;53.268;8.764;2023-11-18T09:33:28;85.30;;;25.48;;
72791;SDS011;60907;53.268;8.764;2023-11-18T09:35:58;93.68;;;26.77;;
72791;SDS011;60907;53.268;8.764;2023-11-18T09:40:57;83.90;;;24.75;;
72791;SDS011;60907;53.268;8.764;2023-11-18T09:43:35;87.93;;;26.67;;
72791;SDS011;60907;53.268;8.764;2023-11-18T09:46:07;83.50;;;26.90;;
72791;SDS011;60907;53.268;8.764;2023-11-18T09:48:47;85.07;;;27.60;;
72791;SDS011;60907;53.268;8.764;2023-11-18T09:51:27;81.90;;;23.38;;
72791;SDS011;60907;53.268;8.764;2023-11-18T09:53:55;85.47;;;27.88;;
72791;SDS011;60907;53.268;8.764;2023-11-18T09:56:41;53.75;;;17.05;;
72791;SDS011;60907;53.268;8.764;2023-11-18T10:02:24;69.30;;;22.65;;
72791;SDS011;60907;53.268;8.764;2023-11-18T10:04:50;84.13;;;27.15;;
72791;SDS011;60907;53.268;8.764;2023-11-18T10:07:23;88.90;;;27.02;;
72791;SDS011;60907;53.268;8.764;2023-11-18T10:09:52;70.60;;;23.95;;
72791;SDS011;60907;53.268;8.764;2023-11-18T10:12:24;84.85;;;24.25;;
72791;SDS011;60907;53.268;8.764;2023-11-18T10:14:51;89.90;;;27.38;;
72791;SDS011;60907;53.268;8.764;2023-11-18T10:17:17;82.03;;;26.73;;
72791;SDS011;60907;53.268;8.764;2023-11-18T10:19:50;75.75;;;24.42;;
72791;SDS011;60907;53.268;8.764;2023-11-18T10:22:23;73.72;;;23.30;;
72791;SDS011;60907;53.268;8.764;2023-11-18T10:27:20;70.63;;;21.73;;
72791;SDS011;60907;53.268;8.764;2023-11-18T10:29:50;69.18;;;22.58;;
72791;SDS011;60907;53.268;8.764;2023-11-18T10:32:17;68.05;;;21.35;;
72791;SDS011;60907;53.268;8.764;2023-11-18T10:34:46;70.47;;;23.70;;
72791;SDS011;60907;53.268;8.764;2023-11-18T10:37:14;69.15;;;23.33;;
72791;SDS011;60907;53.268;8.764;2023-11-18T10:39:46;81.05;;;26.92;;
72791;SDS011;60907;53.268;8.764;2023-11-18T10:42:12;73.28;;;23.20;;
72791;SDS011;60907;53.268;8.764;2023-11-18T10:44:37;75.95;;;24.00;;
72791;SDS011;60907;53.268;8.764;2023-11-18T10:47:05;66.60;;;25.15;;
72791;SDS011;60907;53.268;8.764;2023-11-18T10:49:33;80.85;;;25.83;;
72791;SDS011;60907;53.268;8.764;2023-11-18T10:52:02;67.15;;;21.08;;
72791;SDS011;60907;53.268;8.764;2023-11-18T10:54:32;79.70;;;25.38;;
72791;SDS011;60907;53.268;8.764;2023-11-18T10:57:00;73.53;;;23.73;;
72791;SDS011;60907;53.268;8.764;2023-11-18T10:59:32;75.35;;;25.10;;
72791;SDS011;60907;53.268;8.764;2023-11-18T11:01:58;78.20;;;25.02;;
72791;SDS011;60907;53.268;8.764;2023-11-18T11:04:23;75.88;;;24.50;;
72791;SDS011;60907;53.268;8.764;2023-11-18T11:06:49;70.97;;;24.02;;
72791;SDS011;60907;53.268;8.764;2023-11-18T11:09:21;74.90;;;24.02;;
72791;SDS011;60907;53.268;8.764;2023-11-18T11:11:56;79.75;;;24.45;;
72791;SDS011;60907;53.268;8.764;2023-11-18T11:14:31;70.50;;;22.38;;
72791;SDS011;60907;53.268;8.764;2023-11-18T11:17:05;77.93;;;23.65;;
72791;SDS011;60907;53.268;8.764;2023-11-18T11:19:49;76.72;;;23.95;;
72791;SDS011;60907;53.268;8.764;2023-11-18T11:22:22;66.93;;;22.55;;
72791;SDS011;60907;53.268;8.764;2023-11-18T11:27:41;66.78;;;21.95;;
72791;SDS011;60907;53.268;8.764;2023-11-18T11:30:23;75.03;;;24.45;;
72791;SDS011;60907;53.268;8.764;2023-11-18T11:32:52;71.45;;;24.45;;
72791;SDS011;60907;53.268;8.764;2023-11-18T11:35:24;70.75;;;23.58;;
72791;SDS011;60907;53.268;8.764;2023-11-18T11:37:56;76.47;;;23.60;;
72791;SDS011;60907;53.268;8.764;2023-11-18T11:40:28;74.43;;;24.55;;
72791;SDS011;60907;53.268;8.764;2023-11-18T11:42:55;77.82;;;22.90;;
72791;SDS011;60907;53.268;8.764;2023-11-18T11:45:25;73.53;;;23.52;;
72791;SDS011;60907;53.268;8.764;2023-11-18T11:47:54;65.97;;;20.75;;
72791;SDS011;60907;53.268;8.764;2023-11-18T11:50:38;68.57;;;22.80;;
72791;SDS011;60907;53.268;8.764;2023-11-18T11:53:21;67.82;;;23.33;;
72791;SDS011;60907;53.268;8.764;2023-11-18T11:58:28;56.78;;;19.80;;
72791;SDS011;60907;53.268;8.764;2023-11-18T12:00:54;69.68;;;22.55;;
72791;SDS011;60907;53.268;8.764;2023-11-18T12:03:21;68.28;;;23.98;;
72791;SDS011;60907;53.268;8.764;2023-11-18T12:05:49;70.97;;;22.85;;
72791;SDS011;60907;53.268;8.764;2023-11-18T12:08:21;60.67;;;20.55;;
72791;SDS011;60907;53.268;8.764;2023-11-18T12:10:51;69.13;;;22.85;;
72791;SDS011;60907;53.268;8.764;2023-11-18T12:13:23;59.88;;;22.33;;
72791;SDS011;60907;53.268;8.764;2023-11-18T12:15:52;63.08;;;21.92;;
72791;SDS011;60907;53.268;8.764;2023-11-18T12:18:30;62.17;;;22.45;;
72791;SDS011;60907;53.268;8.764;2023-11-18T12:21:01;64.15;;;22.45;;
72791;SDS011;60907;53.268;8.764;2023-11-18T12:23:28;68.55;;;22.85;;
72791;SDS011;60907;53.268;8.764;2023-11-18T12:25:55;59.92;;;20.02;;
72791;SDS011;60907;53.268;8.764;2023-11-18T12:30:55;63.40;;;21.23;;
72791;SDS011;60907;53.268;8.764;2023-11-18T12:33:21;64.13;;;22.15;;
72791;SDS011;60907;53.268;8.764;2023-11-18T12:36:56;58.88;;;20.20;;
72791;SDS011;60907;53.268;8.764;2023-11-18T12:41:40;54.40;;;19.70;;
72791;SDS011;60907;53.268;8.764;2023-11-18T12:49:46;57.88;;;20.85;;
72791;SDS011;60907;53.268;8.764;2023-11-18T12:52:30;58.40;;;20.95;;
72791;SDS011;60907;53.268;8.764;2023-11-18T12:54:55;56.45;;;19.80;;
72791;SDS011;60907;53.268;8.764;2023-11-18T12:57:26;54.00;;;19.85;;
72791;SDS011;60907;53.268;8.764;2023-11-18T12:59:56;57.40;;;19.55;;
72791;SDS011;60907;53.268;8.764;2023-11-18T13:02:22;49.45;;;18.05;;
72791;SDS011;60907;53.268;8.764;2023-11-18T13:04:48;52.53;;;17.95;;
72791;SDS011;60907;53.268;8.764;2023-11-18T13:07:14;46.15;;;17.70;;
72791;SDS011;60907;53.268;8.764;2023-11-18T13:09:43;54.45;;;18.52;;
72791;SDS011;60907;53.268;8.764;2023-11-18T13:12:11;46.78;;;18.05;;
72791;SDS011;60907;53.268;8.764;2023-11-18T13:14:40;44.22;;;16.80;;
72791;SDS011;60907;53.268;8.764;2023-11-18T13:17:10;48.90;;;16.45;;
72791;SDS011;60907;53.268;8.764;2023-11-18T13:19:37;52.08;;;18.42;;
72791;SDS011;60907;53.268;8.764;2023-11-18T13:22:04;44.08;;;17.40;;
72791;SDS011;60907;53.268;8.764;2023-11-18T13:24:36;43.25;;;17.17;;
72791;SDS011;60907;53.268;8.764;2023-11-18T13:27:05;42.65;;;17.67;;
72791;SDS011;60907;53.268;8.764;2023-11-18T13:29:32;45.53;;;16.73;;
72791;SDS011;60907;53.268;8.764;2023-11-18T13:31:59;42.90;;;16.50;;
72791;SDS011;60907;53.268;8.764;2023-11-18T13:34:28;49.47;;;17.95;;
72791;SDS011;60907;53.268;8.764;2023-11-18T13:36:57;42.83;;;17.15;;
72791;SDS011;60907;53.268;8.764;2023-11-18T13:39:22;46.30;;;16.63;;
72791;SDS011;60907;53.268;8.764;2023-11-18T13:41:49;47.35;;;17.23;;
72791;SDS011;60907;53.268;8.764;2023-11-18T13:44:36;43.40;;;16.17;;
72791;SDS011;60907;53.268;8.764;2023-11-18T13:47:03;28.85;;;12.13;;
72791;SDS011;60907;53.268;8.764;2023-11-18T13:49:30;34.67;;;13.10;;
72791;SDS011;60907;53.268;8.764;2023-11-18T13:51:58;37.97;;;15.73;;
72791;SDS011;60907;53.268;8.764;2023-11-18T13:54:23;46.63;;;16.05;;
72791;SDS011;60907;53.268;8.764;2023-11-18T13:56:50;39.97;;;15.43;;
72791;SDS011;60907;53.268;8.764;2023-11-18T13:59:16;41.88;;;14.63;;
72791;SDS011;60907;53.268;8.764;2023-11-18T14:01:42;42.05;;;16.23;;
72791;SDS011;60907;53.268;8.764;2023-11-18T14:04:07;36.85;;;12.77;;
72791;SDS011;60907;53.268;8.764;2023-11-18T14:06:35;44.30;;;16.02;;
72791;SDS011;60907;53.268;8.764;2023-11-18T14:09:00;43.90;;;15.18;;
72791;SDS011;60907;53.268;8.764;2023-11-18T14:11:26;38.58;;;15.27;;
72791;SDS011;60907;53.268;8.764;2023-11-18T14:13:51;37.17;;;15.18;;
72791;SDS011;60907;53.268;8.764;2023-11-18T14:16:18;41.28;;;14.48;;
72791;SDS011;60907;53.268;8.764;2023-11-18T14:21:13;44.65;;;15.77;;
72791;SDS011;60907;53.268;8.764;2023-11-18T14:23:39;45.97;;;15.88;;
72791;SDS011;60907;53.268;8.764;2023-11-18T14:26:05;40.15;;;15.60;;
72791;SDS011;60907;53.268;8.764;2023-11-18T14:28:32;46.58;;;16.25;;
72791;SDS011;60907;53.268;8.764;2023-11-18T14:31:00;40.83;;;16.20;;
72791;SDS011;60907;53.268;8.764;2023-11-18T14:33:26;45.80;;;18.00;;
72791;SDS011;60907;53.268;8.764;2023-11-18T14:35:53;50.58;;;18.00;;
72791;SDS011;60907;53.268;8.764;2023-11-18T14:38:18;40.08;;;14.70;;
72791;SDS011;60907;53.268;8.764;2023-11-18T14:40:45;45.42;;;17.15;;
72791;SDS011;60907;53.268;8.764;2023-11-18T14:43:13;38.05;;;16.48;;
72791;SDS011;60907;53.268;8.764;2023-11-18T14:45:40;39.22;;;16.13;;
72791;SDS011;60907;53.268;8.764;2023-11-18T14:48:05;38.80;;;16.13;;
72791;SDS011;60907;53.268;8.764;2023-11-18T14:50:31;41.35;;;15.80;;
72791;SDS011;60907;53.268;8.764;2023-11-18T14:52:56;42.97;;;16.08;;
72791;SDS011;60907;53.268;8.764;2023-11-18T14:55:28;34.03;;;12.63;;
72791;SDS011;60907;53.268;8.764;2023-11-18T14:57:54;38.88;;;13.70;;
72791;SDS011;60907;53.268;8.764;2023-11-18T15:00:23;40.30;;;15.25;;
72791;SDS011;60907;53.268;8.764;2023-11-18T15:02:52;42.08;;;15.43;;
72791;SDS011;60907;53.268;8.764;2023-11-18T15:05:18;36.97;;;15.00;;
72791;SDS011;60907;53.268;8.764;2023-11-18T15:07:49;40.67;;;15.15;;